createdAt,value
2023-01-17T00:00:01.902Z,95.50
2023-01-17T00:05:26.022Z,95.89
2023-01-17T00:10:33.801Z,96.31
2023-01-17T00:15:40.866Z,96.49
2023-01-17T00:21:06.226Z,96.85
2023-01-17T00:26:16.848Z,96.94
2023-01-17T00:31:22.963Z,96.97
2023-01-17T00:36:29.059Z,96.75
2023-01-17T00:41:35.036Z,97.08
2023-01-17T00:46:59.853Z,97.02
2023-01-17T00:52:26.314Z,96.74
2023-01-17T00:57:51.125Z,96.57
2023-01-17T01:03:16.301Z,96.44
2023-01-17T01:08:43.608Z,96.71
2023-01-17T01:14:08.627Z,96.49
2023-01-17T01:19:33.403Z,95.74
2023-01-17T01:24:58.619Z,95.52
2023-01-17T01:30:25.239Z,95.86
2023-01-17T01:35:32.893Z,95.85
2023-01-17T01:40:45.278Z,95.13
2023-01-17T01:45:58.316Z,94.77
2023-01-17T01:51:08.735Z,94.88
2023-01-17T01:56:17.202Z,94.85
2023-01-17T02:01:24.565Z,95.04
2023-01-17T02:06:35.159Z,94.85
2023-01-17T02:11:43.253Z,94.27
2023-01-17T02:17:03.577Z,93.80
2023-01-17T02:22:35.406Z,93.03
2023-01-17T02:27:57.871Z,92.64
2023-01-17T02:33:23.987Z,92.70
2023-01-17T02:38:39.542Z,93.22
2023-01-17T02:43:50.203Z,93.67
2023-01-17T02:48:59.296Z,93.39
2023-01-17T02:54:25.767Z,93.26
2023-01-17T02:59:42.331Z,93.07
2023-01-17T03:04:54.164Z,93.88
2023-01-17T03:10:09.445Z,94.03
2023-01-17T03:15:19.227Z,93.67
2023-01-17T03:20:26.935Z,94.79
2023-01-17T03:25:34.008Z,94.79
2023-01-17T03:30:41.261Z,94.62
2023-01-17T03:35:49.594Z,94.76
2023-01-17T03:40:58.792Z,94.09
2023-01-17T03:46:07.950Z,93.03
2023-01-17T03:51:15.373Z,93.13
2023-01-17T03:56:23.092Z,93.40
2023-01-17T04:01:30.432Z,93.52
2023-01-17T04:06:37.693Z,93.68
2023-01-17T04:11:43.244Z,93.46
2023-01-17T04:16:50.347Z,93.30
2023-01-17T04:21:57.667Z,93.52
2023-01-17T04:27:05.293Z,94.07
2023-01-17T04:32:12.567Z,94.40
2023-01-17T04:37:20.302Z,94.54
2023-01-17T04:42:28.120Z,94.72
2023-01-17T04:47:36.155Z,95.30
2023-01-17T04:52:43.408Z,95.06
2023-01-17T04:57:49.079Z,95.24
2023-01-17T05:02:56.432Z,95.70
2023-01-17T05:08:03.688Z,96.23
2023-01-17T05:13:09.161Z,97.24
2023-01-17T05:18:18.187Z,97.43
2023-01-17T05:23:26.136Z,97.75
2023-01-17T05:28:34.354Z,98.30
2023-01-17T05:33:41.752Z,98.08
2023-01-17T05:38:49.182Z,98.70
2023-01-17T05:43:56.702Z,98.98
2023-01-17T05:49:02.373Z,99.15
2023-01-17T05:54:10.641Z,98.70
2023-01-17T05:59:25.614Z,98.33
2023-01-17T06:04:43.884Z,97.88
2023-01-17T06:09:51.127Z,97.49
2023-01-17T06:14:56.696Z,97.90
2023-01-17T06:20:04.454Z,97.59
2023-01-17T06:25:12.677Z,98.00
2023-01-17T06:30:20.498Z,98.45
2023-01-17T06:35:27.535Z,98.49
2023-01-17T06:40:33.461Z,97.86
2023-01-17T06:45:40.814Z,97.45
2023-01-17T06:50:48.535Z,97.34
2023-01-17T06:55:56.665Z,97.83
2023-01-17T07:01:09.565Z,98.36
2023-01-17T07:06:16.883Z,98.65
2023-01-17T07:11:24.608Z,98.77
2023-01-17T07:16:31.787Z,98.56
2023-01-17T07:21:39.268Z,98.53
2023-01-17T07:26:44.879Z,98.42
2023-01-17T07:31:52.842Z,98.49
2023-01-17T07:37:00.282Z,98.31
2023-01-17T07:42:07.829Z,98.44
2023-01-17T07:47:15.171Z,98.41
2023-01-17T07:52:23.113Z,97.88
2023-01-17T07:57:32.796Z,98.36
2023-01-17T08:02:40.852Z,99.10
2023-01-17T08:07:48.043Z,99.05
2023-01-17T08:12:53.731Z,98.88
2023-01-17T08:18:01.028Z,98.58
2023-01-17T08:23:06.693Z,98.85
2023-01-17T08:28:14.064Z,99.09
2023-01-17T08:33:19.888Z,99.21
2023-01-17T08:38:27.570Z,99.12
2023-01-17T08:43:34.795Z,99.18
2023-01-17T08:48:40.438Z,98.66
2023-01-17T08:53:48.850Z,98.70
2023-01-17T08:58:56.573Z,98.42
2023-01-17T09:04:03.730Z,98.10
2023-01-17T09:09:11.195Z,97.05
2023-01-17T09:14:18.701Z,96.46
2023-01-17T09:19:25.898Z,95.80
2023-01-17T09:24:31.459Z,95.34
2023-01-17T09:29:39.077Z,94.77
2023-01-17T09:34:48.011Z,93.86
2023-01-17T09:39:55.212Z,94.13
2023-01-17T09:45:00.994Z,94.11
2023-01-17T09:50:22.651Z,94.32
2023-01-17T09:55:35.533Z,94.20
2023-01-17T10:00:54.727Z,93.97
2023-01-17T10:06:23.978Z,93.29
2023-01-17T10:11:40.597Z,92.38
2023-01-17T10:16:55.667Z,91.47
2023-01-17T10:22:17.965Z,90.40
2023-01-17T10:27:31.764Z,89.89
2023-01-17T10:32:48.232Z,89.61
2023-01-17T10:37:58.394Z,88.96
2023-01-17T10:43:16.888Z,87.91
2023-01-17T10:48:35.171Z,87.41
2023-01-17T10:53:54.840Z,86.88
2023-01-17T11:02:43.363Z,83.66
2023-01-17T11:08:03.172Z,84.03
2023-01-17T11:13:25.458Z,82.91
2023-01-17T11:18:35.940Z,81.72
2023-01-17T11:23:45.284Z,82.08
2023-01-17T11:28:53.404Z,81.60
2023-01-17T11:34:18.524Z,79.95
2023-01-17T11:39:29.009Z,79.42
2023-01-17T11:44:37.260Z,74.99
2023-01-17T11:49:46.482Z,72.12
2023-01-17T11:54:55.731Z,70.99
2023-01-17T12:00:16.740Z,70.64
2023-01-17T12:05:47.411Z,71.36
2023-01-17T12:11:04.365Z,69.74
2023-01-17T12:16:34.168Z,69.01
2023-01-17T12:21:49.777Z,71.19
2023-01-17T12:27:06.399Z,70.12
2023-01-17T12:32:31.930Z,69.87
2023-01-17T12:37:42.218Z,70.82
2023-01-17T12:42:54.881Z,70.88
2023-01-17T12:48:07.113Z,69.21
2023-01-17T12:53:25.476Z,69.72
2023-01-17T12:58:40.115Z,70.30
2023-01-17T13:03:57.735Z,70.77
2023-01-17T13:09:06.989Z,70.70
2023-01-17T13:14:14.155Z,71.05
2023-01-17T13:19:24.782Z,70.61
2023-01-17T13:24:45.812Z,69.22
2023-01-17T13:30:06.000Z,70.13
2023-01-17T13:35:27.679Z,69.06
2023-01-17T13:40:50.849Z,68.50
2023-01-17T13:46:00.689Z,68.48
2023-01-17T13:51:09.508Z,69.19
2023-01-17T13:56:25.336Z,69.51
2023-01-17T14:01:56.368Z,68.82
2023-01-17T14:07:18.592Z,69.07
2023-01-17T14:12:33.898Z,69.18
2023-01-17T14:17:52.384Z,69.33
2023-01-17T14:23:02.997Z,69.67
2023-01-17T14:28:25.022Z,69.87
2023-01-17T14:33:36.912Z,69.86
2023-01-17T14:38:47.027Z,69.54
2023-01-17T14:43:55.300Z,69.83
2023-01-17T14:49:07.694Z,69.93
2023-01-17T14:54:23.036Z,70.06
2023-01-17T14:59:30.417Z,70.42
2023-01-17T15:04:40.077Z,70.78
2023-01-17T15:09:47.705Z,71.23
2023-01-17T15:14:58.865Z,72.74
2023-01-17T15:20:17.334Z,72.73
2023-01-17T15:25:24.919Z,73.91
2023-01-17T15:30:32.448Z,74.09
2023-01-17T15:35:39.548Z,73.93
2023-01-17T15:40:46.029Z,74.32
2023-01-17T15:46:00.400Z,74.90
2023-01-17T15:51:08.316Z,75.65
2023-01-17T15:56:31.051Z,76.60
2023-01-17T16:01:39.024Z,77.17
2023-01-17T16:06:46.905Z,77.30
2023-01-17T16:11:54.195Z,76.70
2023-01-17T16:17:03.002Z,76.46
2023-01-17T16:22:12.643Z,76.83
2023-01-17T16:27:20.230Z,77.15
2023-01-17T16:32:28.360Z,77.38
2023-01-17T16:37:35.630Z,77.96
2023-01-17T16:42:42.812Z,78.81
2023-01-17T16:47:49.521Z,80.05
2023-01-17T16:52:57.470Z,80.03
2023-01-17T17:02:26.293Z,79.94
2023-01-17T17:07:35.515Z,80.16
2023-01-17T17:12:42.695Z,80.04
2023-01-17T17:17:49.951Z,80.46
2023-01-17T17:22:57.573Z,80.76
2023-01-17T17:28:05.104Z,81.25
2023-01-17T17:33:12.700Z,81.70
2023-01-17T17:38:20.330Z,82.05
2023-01-17T17:43:27.934Z,82.07
2023-01-17T17:48:35.425Z,81.99
2023-01-17T17:53:42.636Z,82.60
2023-01-17T17:58:48.194Z,82.57
2023-01-17T18:03:57.595Z,82.70
2023-01-17T18:09:05.321Z,82.89
2023-01-17T18:14:14.942Z,83.01
2023-01-17T18:19:24.173Z,82.96
2023-01-17T18:24:32.007Z,83.15
2023-01-17T18:29:39.414Z,83.05
2023-01-17T18:34:47.891Z,83.16
2023-01-17T18:39:55.634Z,83.41
2023-01-17T18:45:03.149Z,83.31
2023-01-17T18:50:12.340Z,83.56
2023-01-17T18:55:19.828Z,83.52
2023-01-17T19:00:27.823Z,83.62
2023-01-17T19:05:38.463Z,83.58
2023-01-17T19:10:45.822Z,83.47
2023-01-17T19:15:54.469Z,83.21
2023-01-17T19:21:08.635Z,82.94
2023-01-17T19:26:17.398Z,82.93
2023-01-17T19:31:27.299Z,82.92
2023-01-17T19:36:37.649Z,82.86
2023-01-17T19:41:47.127Z,82.96
2023-01-17T19:46:56.870Z,83.18
2023-01-17T19:52:04.133Z,83.40
2023-01-17T19:57:09.907Z,83.49
2023-01-17T20:02:18.091Z,83.62
2023-01-17T20:07:25.385Z,83.62
2023-01-17T20:12:31.677Z,83.93
2023-01-17T20:17:39.027Z,83.82
2023-01-17T20:22:46.674Z,83.88
2023-01-17T20:27:55.187Z,84.07
2023-01-17T20:33:03.543Z,84.13
2023-01-17T20:38:12.161Z,84.15
2023-01-17T20:43:19.459Z,84.57
2023-01-17T20:48:26.738Z,84.73
2023-01-17T20:53:32.811Z,84.62
2023-01-17T20:58:40.140Z,84.80
2023-01-17T21:03:49.445Z,85.02
2023-01-17T21:08:56.888Z,85.03
2023-01-17T21:14:05.877Z,85.10
2023-01-17T21:19:17.382Z,85.32
2023-01-17T21:24:24.821Z,85.41
2023-01-17T21:29:32.759Z,85.30
2023-01-17T21:34:40.357Z,85.24
2023-01-17T21:39:51.667Z,85.12
2023-01-17T21:44:58.907Z,85.32
2023-01-17T21:50:04.935Z,85.48
2023-01-17T21:55:27.040Z,85.78
2023-01-17T22:00:34.285Z,85.65
2023-01-17T22:05:42.003Z,85.71
2023-01-17T22:10:49.373Z,85.71
2023-01-17T22:16:03.210Z,85.86
2023-01-17T22:21:13.248Z,85.69
2023-01-17T22:26:24.433Z,85.88
2023-01-17T22:31:32.080Z,85.74
2023-01-17T22:36:39.579Z,85.89
2023-01-17T22:41:46.799Z,85.97
2023-01-17T22:46:52.517Z,86.29
2023-01-17T22:51:59.734Z,86.32
2023-01-17T22:57:07.879Z,86.60
2023-01-17T23:02:16.580Z,86.82
2023-01-17T23:07:27.351Z,87.38
2023-01-17T23:12:34.989Z,87.62
2023-01-17T23:17:59.900Z,87.94
2023-01-17T23:23:07.281Z,88.39
2023-01-17T23:28:21.081Z,88.94
2023-01-17T23:33:28.312Z,89.28
2023-01-17T23:38:37.952Z,89.38
2023-01-17T23:43:45.433Z,89.86
2023-01-17T23:48:53.245Z,89.97
2023-01-17T23:54:05.654Z,90.29
2023-01-17T23:59:14.112Z,90.58
